Time;durP1;ratioP1;P1;durP2;ratioP2;P2;SDS_P1;SDS_P2;PMS_P1;PMS_P2;Temp;Humidity;BMP_temperature;BMP_pressure;BME280_temperature;BME280_humidity;BME280_pressure;Samples;Min_cycle;Max_cycle;Signal;HPM_P1;HPM_P2
2023/04/10 00:00:56;;;;;;;9.80;8.57;;;;;;;;;;4968543;28;20409;-91
2023/04/10 00:03:23;;;;;;;10.13;9.13;;;;;;;;;;4967431;28;20468;-92
2023/04/10 00:05:49;;;;;;;9.10;8.30;;;;;;;;;;4963691;28;20447;-91
2023/04/10 00:08:15;;;;;;;9.53;8.77;;;;;;;;;;4961374;28;20447;-91
2023/04/10 00:10:41;;;;;;;10.03;9.03;;;;;;;;;;4981546;28;20445;-92
2023/04/10 00:13:10;;;;;;;9.60;8.60;;;;;;;;;;4970124;28;21001;-94
2023/04/10 00:15:36;;;;;;;8.87;7.97;;;;;;;;;;4970523;28;20432;-92
2023/04/10 00:18:03;;;;;;;9.17;8.27;;;;;;;;;;4968036;28;20499;-91
2023/04/10 00:20:45;;;;;;;10.43;9.37;;;;;;;;;;4986957;28;20445;-93
2023/04/10 00:23:11;;;;;;;9.20;8.30;;;;;;;;;;4991321;28;20524;-93
2023/04/10 00:25:37;;;;;;;9.67;8.80;;;;;;;;;;4980199;28;20447;-92
2023/04/10 00:28:03;;;;;;;9.33;8.43;;;;;;;;;;4956780;28;20444;-92
2023/04/10 00:30:32;;;;;;;9.97;9.07;;;;;;;;;;4949862;28;20990;-93
2023/04/10 00:32:58;;;;;;;9.63;8.63;;;;;;;;;;4970348;28;20430;-92
2023/04/10 00:35:24;;;;;;;9.00;8.20;;;;;;;;;;4992084;28;20708;-92
2023/04/10 00:37:51;;;;;;;10.80;9.70;;;;;;;;;;4979275;28;20459;-92
2023/04/10 00:40:22;;;;;;;10.97;9.97;;;;;;;;;;4976174;28;20449;-90
2023/04/10 00:42:48;;;;;;;9.87;8.97;;;;;;;;;;4977849;28;20584;-92
2023/04/10 00:45:15;;;;;;;10.50;9.50;;;;;;;;;;4973587;28;20457;-91
2023/04/10 00:47:41;;;;;;;8.83;7.93;;;;;;;;;;4964063;28;20452;-92
2023/04/10 00:50:10;;;;;;;10.53;8.93;;;;;;;;;;4960947;28;20461;-94
2023/04/10 00:52:36;;;;;;;10.50;9.07;;;;;;;;;;4954610;28;20425;-92
2023/04/10 00:55:05;;;;;;;10.73;9.63;;;;;;;;;;4968748;28;20784;-92
2023/04/10 00:57:31;;;;;;;10.13;8.70;;;;;;;;;;4966210;28;20524;-92
2023/04/10 00:59:57;;;;;;;10.07;9.17;;;;;;;;;;4957289;28;20970;-91
2023/04/10 01:02:24;;;;;;;7.57;6.93;;;;;;;;;;4963798;28;20438;-92
2023/04/10 01:04:50;;;;;;;8.93;8.07;;;;;;;;;;4968001;28;20444;-92
2023/04/10 01:07:32;;;;;;;11.13;10.00;;;;;;;;;;4961007;28;20449;-92
2023/04/10 01:10:17;;;;;;;9.47;8.57;;;;;;;;;;4956441;28;20539;-90
2023/04/10 01:12:49;;;;;;;10.60;8.80;;;;;;;;;;4966170;28;20437;-92
2023/04/10 01:15:16;;;;;;;9.40;8.63;;;;;;;;;;4963682;28;20791;-92
2023/04/10 01:17:42;;;;;;;11.57;9.40;;;;;;;;;;4964473;28;20486;-92
2023/04/10 01:20:35;;;;;;;10.00;9.20;;;;;;;;;;4980939;28;20433;-93
2023/04/10 01:23:20;;;;;;;10.23;9.23;;;;;;;;;;4991838;28;20460;-93
2023/04/10 01:26:06;;;;;;;10.40;9.50;;;;;;;;;;4958144;28;20426;-92
2023/04/10 01:28:38;;;;;;;10.47;8.80;;;;;;;;;;4970263;28;20596;-94
2023/04/10 01:31:06;;;;;;;9.57;8.77;;;;;;;;;;4949263;28;20470;-92
2023/04/10 01:33:39;;;;;;;10.07;9.10;;;;;;;;;;4960799;28;20449;-94
2023/04/10 01:36:11;;;;;;;10.83;9.93;;;;;;;;;;4950224;28;20468;-92
2023/04/10 01:38:53;;;;;;;;;;;;;;;;;;;;;
2023/04/10 01:41:22;;;;;;;9.97;8.50;;;;;;;;;;4949912;29;20424;-92
2023/04/10 01:43:51;;;;;;;10.60;9.70;;;;;;;;;;4964344;28;20512;-92
2023/04/10 01:46:19;;;;;;;9.60;8.68;;;;;;;;;;4962554;28;20807;-92
2023/04/10 01:48:53;;;;;;;10.60;9.60;;;;;;;;;;4964280;28;20298;-91
2023/04/10 01:51:23;;;;;;;11.40;8.90;;;;;;;;;;4968336;28;20472;-92
2023/04/10 01:53:49;;;;;;;9.37;8.47;;;;;;;;;;4967831;28;20553;-92
2023/04/10 01:56:16;;;;;;;9.47;8.43;;;;;;;;;;4966321;28;20437;-90
2023/04/10 01:58:42;;;;;;;9.43;8.63;;;;;;;;;;4970430;28;20456;-90
2023/04/10 02:01:10;;;;;;;10.50;9.50;;;;;;;;;;4971448;28;20693;-92
2023/04/10 02:03:37;;;;;;;10.50;9.23;;;;;;;;;;4972337;28;20476;-92
2023/04/10 02:06:26;;;;;;;11.43;10.20;;;;;;;;;;4974956;28;20434;-91
2023/04/10 02:09:34;;;;;;;10.17;8.67;;;;;;;;;;4964826;28;20434;-92
2023/04/10 02:12:11;;;;;;;11.60;9.07;;;;;;;;;;4953399;28;20448;-92
2023/04/10 02:14:43;;;;;;;11.87;9.43;;;;;;;;;;4965125;28;20429;-92
2023/04/10 02:17:10;;;;;;;13.43;12.23;;;;;;;;;;4949408;28;20453;-91
2023/04/10 02:19:38;;;;;;;10.33;9.10;;;;;;;;;;5004017;28;20436;-93
2023/04/10 02:22:10;;;;;;;12.20;11.10;;;;;;;;;;4988998;28;20421;-91
2023/04/10 02:24:37;;;;;;;9.10;8.30;;;;;;;;;;5003759;28;20431;-91
2023/04/10 02:27:03;;;;;;;11.03;9.97;;;;;;;;;;4998553;28;20444;-92
2023/04/10 02:29:29;;;;;;;10.30;8.70;;;;;;;;;;4974729;28;20412;-92
2023/04/10 02:31:55;;;;;;;11.40;10.30;;;;;;;;;;4960842;28;20484;-92
2023/04/10 02:34:21;;;;;;;11.60;9.77;;;;;;;;;;4978844;28;20542;-93
2023/04/10 02:36:47;;;;;;;12.47;9.20;;;;;;;;;;4972231;28;20449;-93
2023/04/10 02:39:14;;;;;;;11.67;10.47;;;;;;;;;;4971758;28;20455;-92
2023/04/10 02:41:40;;;;;;;11.63;10.10;;;;;;;;;;4965765;28;20648;-92
2023/04/10 02:44:08;;;;;;;10.17;9.13;;;;;;;;;;4974000;28;20482;-92
2023/04/10 02:46:34;;;;;;;10.57;9.50;;;;;;;;;;4966376;28;20477;-93
2023/04/10 02:49:00;;;;;;;11.17;10.10;;;;;;;;;;4969503;28;20988;-93
2023/04/10 02:51:26;;;;;;;12.10;9.40;;;;;;;;;;4964730;28;20625;-93
2023/04/10 02:53:52;;;;;;;10.70;9.73;;;;;;;;;;4973643;28;20436;-91
2023/04/10 02:56:19;;;;;;;11.20;9.13;;;;;;;;;;4972996;28;20417;-91
2023/04/10 02:58:46;;;;;;;9.73;8.83;;;;;;;;;;4959809;28;20437;-92
2023/04/10 03:01:12;;;;;;;11.70;9.13;;;;;;;;;;4960454;28;20519;-92
2023/04/10 03:03:39;;;;;;;9.87;8.93;;;;;;;;;;4993574;28;20471;-91
2023/04/10 03:06:11;;;;;;;10.43;9.50;;;;;;;;;;4964969;28;20479;-93
2023/04/10 03:08:37;;;;;;;12.20;11.00;;;;;;;;;;4969147;28;20700;-92
2023/04/10 03:11:03;;;;;;;12.17;8.90;;;;;;;;;;4988317;28;20413;-92
2023/04/10 03:13:29;;;;;;;9.40;8.50;;;;;;;;;;4996084;28;20631;-93
2023/04/10 03:15:58;;;;;;;11.83;9.50;;;;;;;;;;4961709;28;20452;-92
2023/04/10 03:18:33;;;;;;;10.53;9.50;;;;;;;;;;4990373;28;20468;-93
2023/04/10 03:21:02;;;;;;;10.87;9.87;;;;;;;;;;4985974;28;20443;-91
2023/04/10 03:23:36;;;;;;;10.20;8.73;;;;;;;;;;4961729;28;20477;-91
2023/04/10 03:26:03;;;;;;;10.27;8.93;;;;;;;;;;4970130;28;20642;-92
2023/04/10 03:28:36;;;;;;;12.13;10.80;;;;;;;;;;4965514;28;20447;-91
2023/04/10 03:31:03;;;;;;;13.70;10.07;;;;;;;;;;4985307;28;20430;-91
2023/04/10 03:33:29;;;;;;;8.83;8.00;;;;;;;;;;4993712;28;20435;-91
2023/04/10 03:35:56;;;;;;;11.33;10.23;;;;;;;;;;4983240;28;20458;-91
2023/04/10 03:38:24;;;;;;;9.83;8.60;;;;;;;;;;4998106;28;20462;-93
2023/04/10 03:40:50;;;;;;;9.43;8.60;;;;;;;;;;4989194;28;20480;-93
2023/04/10 03:43:16;;;;;;;9.70;8.80;;;;;;;;;;4984029;28;20490;-92
2023/04/10 03:45:48;;;;;;;9.93;8.97;;;;;;;;;;4980176;28;20491;-92
2023/04/10 03:48:14;;;;;;;8.70;8.00;;;;;;;;;;4985615;28;20457;-92
2023/04/10 03:50:40;;;;;;;10.40;8.90;;;;;;;;;;4962816;28;20482;-92
2023/04/10 03:53:06;;;;;;;10.00;8.40;;;;;;;;;;4974343;28;20431;-92
2023/04/10 03:55:38;;;;;;;10.43;9.33;;;;;;;;;;4970561;28;20487;-92
2023/04/10 03:58:04;;;;;;;9.90;8.90;;;;;;;;;;4972542;28;20476;-92
2023/04/10 04:00:31;;;;;;;24.60;9.43;;;;;;;;;;4981554;28;20967;-91
2023/04/10 04:02:59;;;;;;;9.73;8.87;;;;;;;;;;4976096;28;20879;-91
2023/04/10 04:05:29;;;;;;;9.47;8.53;;;;;;;;;;4956627;28;20967;-91
2023/04/10 04:07:55;;;;;;;9.17;7.90;;;;;;;;;;4970065;28;20444;-91
2023/04/10 04:10:24;;;;;;;9.23;8.43;;;;;;;;;;4980315;28;20961;-92
2023/04/10 04:12:50;;;;;;;10.03;8.53;;;;;;;;;;4967999;28;20436;-91
2023/04/10 04:15:21;;;;;;;9.53;8.47;;;;;;;;;;4978944;28;20490;-90
2023/04/10 04:17:47;;;;;;;9.10;8.20;;;;;;;;;;4981033;28;20476;-90
2023/04/10 04:20:13;;;;;;;8.40;7.70;;;;;;;;;;4956892;28;20459;-91
2023/04/10 04:22:41;;;;;;;9.07;8.17;;;;;;;;;;4964454;28;20475;-91
2023/04/10 04:25:11;;;;;;;9.70;8.80;;;;;;;;;;4985142;28;20685;-92
2023/04/10 04:27:37;;;;;;;10.23;9.40;;;;;;;;;;4982728;28;20445;-91
2023/04/10 04:30:11;;;;;;;9.00;8.20;;;;;;;;;;4976747;28;20531;-91
2023/04/10 04:32:37;;;;;;;7.73;7.03;;;;;;;;;;4965029;28;20597;-92
2023/04/10 04:35:04;;;;;;;7.70;7.00;;;;;;;;;;4971159;28;20437;-92
2023/04/10 04:37:30;;;;;;;8.43;7.40;;;;;;;;;;4974149;28;20441;-92
2023/04/10 04:39:58;;;;;;;8.77;8.03;;;;;;;;;;4977696;28;20469;-92
2023/04/10 04:42:24;;;;;;;7.00;6.50;;;;;;;;;;4979856;28;20435;-91
2023/04/10 04:44:56;;;;;;;6.80;6.40;;;;;;;;;;4982255;28;20436;-92
2023/04/10 04:47:24;;;;;;;7.77;7.10;;;;;;;;;;4982246;28;20759;-93
2023/04/10 04:49:50;;;;;;;8.00;7.20;;;;;;;;;;4985066;28;20465;-92
2023/04/10 04:52:16;;;;;;;7.27;6.70;;;;;;;;;;4977153;28;20589;-91
2023/04/10 04:54:42;;;;;;;8.57;7.83;;;;;;;;;;5005314;28;20431;-91
2023/04/10 04:57:11;;;;;;;7.37;6.97;;;;;;;;;;4978746;28;20441;-92
2023/04/10 04:59:39;;;;;;;7.47;6.83;;;;;;;;;;4982452;28;20424;-92
2023/04/10 05:02:05;;;;;;;7.70;7.00;;;;;;;;;;4976162;28;20812;-91
2023/04/10 05:04:34;;;;;;;7.47;6.77;;;;;;;;;;4982633;28;20468;-91
2023/04/10 05:07:05;;;;;;;9.50;8.70;;;;;;;;;;4981375;28;20448;-92
2023/04/10 05:09:31;;;;;;;8.03;7.33;;;;;;;;;;4973579;28;20899;-93
2023/04/10 05:11:57;;;;;;;8.67;7.97;;;;;;;;;;4979472;28;20461;-93
2023/04/10 05:14:23;;;;;;;7.93;7.33;;;;;;;;;;5002957;28;20784;-93
2023/04/10 05:16:57;;;;;;;6.70;6.30;;;;;;;;;;4978289;28;20432;-90
2023/04/10 05:19:23;;;;;;;7.33;6.80;;;;;;;;;;4983925;28;20567;-92
2023/04/10 05:21:50;;;;;;;7.90;7.30;;;;;;;;;;4979106;28;20450;-92
2023/04/10 05:24:16;;;;;;;6.90;6.40;;;;;;;;;;4971214;28;20519;-91
2023/04/10 05:26:44;;;;;;;7.40;6.80;;;;;;;;;;4964452;28;20595;-91
2023/04/10 05:29:12;;;;;;;6.90;6.30;;;;;;;;;;4966503;28;20663;-92
2023/04/10 05:31:41;;;;;;;8.50;7.60;;;;;;;;;;4969441;28;20447;-92
2023/04/10 05:34:13;;;;;;;6.63;6.13;;;;;;;;;;4966188;28;20440;-93
2023/04/10 05:36:39;;;;;;;6.87;6.40;;;;;;;;;;4971289;28;20841;-92
2023/04/10 05:39:05;;;;;;;6.70;6.30;;;;;;;;;;4980060;28;20444;-92
2023/04/10 05:41:31;;;;;;;7.10;6.60;;;;;;;;;;4995907;28;20441;-90
2023/04/10 05:43:57;;;;;;;7.87;6.93;;;;;;;;;;4987585;28;20475;-91
2023/04/10 05:46:26;;;;;;;9.13;6.23;;;;;;;;;;4984361;28;20448;-91
2023/04/10 05:48:55;;;;;;;6.73;6.37;;;;;;;;;;4985942;28;20463;-94
2023/04/10 05:51:23;;;;;;;6.73;6.23;;;;;;;;;;4979202;28;20432;-92
2023/04/10 05:53:53;;;;;;;8.23;6.17;;;;;;;;;;4971165;28;20496;-93
2023/04/10 05:56:26;;;;;;;6.83;6.33;;;;;;;;;;4966411;28;20454;-92
2023/04/10 05:58:54;;;;;;;7.93;7.33;;;;;;;;;;4963107;28;20464;-92
2023/04/10 06:01:23;;;;;;;6.00;5.60;;;;;;;;;;4982478;28;20444;-91
2023/04/10 06:03:51;;;;;;;6.00;5.60;;;;;;;;;;4983523;28;20468;-90
2023/04/10 06:06:17;;;;;;;6.10;5.80;;;;;;;;;;4989325;28;20533;-92
2023/04/10 06:08:43;;;;;;;6.13;5.70;;;;;;;;;;4974347;28;20475;-92
2023/04/10 06:11:09;;;;;;;7.13;6.53;;;;;;;;;;4960560;28;20443;-91
2023/04/10 06:13:41;;;;;;;6.90;6.40;;;;;;;;;;4966212;28;20745;-91
2023/04/10 06:16:07;;;;;;;6.30;5.90;;;;;;;;;;4967019;28;20538;-92
2023/04/10 06:18:33;;;;;;;7.10;6.70;;;;;;;;;;4963601;28;20469;-93
2023/04/10 06:21:02;;;;;;;7.13;6.60;;;;;;;;;;4986240;28;20429;-93
2023/04/10 06:23:36;;;;;;;7.57;6.87;;;;;;;;;;4981999;28;20472;-92
2023/04/10 06:26:04;;;;;;;7.03;6.43;;;;;;;;;;4989501;28;20479;-91
2023/04/10 06:28:30;;;;;;;6.67;6.23;;;;;;;;;;4989122;28;20460;-92
2023/04/10 06:31:02;;;;;;;6.27;5.97;;;;;;;;;;4990575;28;20472;-92
2023/04/10 06:33:40;;;;;;;6.20;5.90;;;;;;;;;;4971508;28;20653;-92
2023/04/10 06:36:25;;;;;;;7.30;6.90;;;;;;;;;;4962882;28;20445;-93
2023/04/10 06:38:58;;;;;;;5.20;5.00;;;;;;;;;;4982003;28;20484;-93
2023/04/10 06:41:45;;;;;;;5.87;5.53;;;;;;;;;;4976969;28;20446;-92
2023/04/10 06:44:14;;;;;;;7.10;6.60;;;;;;;;;;4962150;28;20464;-92
2023/04/10 06:46:44;;;;;;;6.20;5.80;;;;;;;;;;4969501;28;20428;-92
2023/04/10 06:49:10;;;;;;;7.30;6.73;;;;;;;;;;4971794;28;20795;-92
2023/04/10 06:51:38;;;;;;;6.80;6.30;;;;;;;;;;4968181;28;20959;-92
2023/04/10 06:54:07;;;;;;;5.40;5.20;;;;;;;;;;4968675;28;20490;-93
2023/04/10 06:56:36;;;;;;;7.07;6.67;;;;;;;;;;4963689;28;20989;-92
2023/04/10 06:59:10;;;;;;;7.23;6.80;;;;;;;;;;4970525;28;20839;-92
2023/04/10 07:01:36;;;;;;;6.30;5.90;;;;;;;;;;4983424;28;20420;-92
2023/04/10 07:04:28;;;;;;;8.53;7.83;;;;;;;;;;4976121;28;20471;-93
2023/04/10 07:06:56;;;;;;;7.73;7.03;;;;;;;;;;4985059;28;20836;-91
2023/04/10 07:09:39;;;;;;;6.80;6.30;;;;;;;;;;4986434;28;20440;-93
2023/04/10 07:12:09;;;;;;;7.10;6.70;;;;;;;;;;4986269;28;20441;-92
2023/04/10 07:14:37;;;;;;;6.70;6.30;;;;;;;;;;4988006;28;20444;-93
2023/04/10 07:17:12;;;;;;;6.07;5.60;;;;;;;;;;4973756;28;20783;-92
2023/04/10 07:19:38;;;;;;;6.80;5.90;;;;;;;;;;4969058;28;20441;-92
2023/04/10 07:22:20;;;;;;;6.07;5.77;;;;;;;;;;4973379;28;20933;-92
2023/04/10 07:24:50;;;;;;;5.83;5.60;;;;;;;;;;4981706;28;20495;-91
2023/04/10 07:27:23;;;;;;;5.80;5.50;;;;;;;;;;4980756;28;20450;-92
2023/04/10 07:29:53;;;;;;;6.87;6.33;;;;;;;;;;4971858;28;20436;-92
2023/04/10 07:32:22;;;;;;;6.57;6.17;;;;;;;;;;4978047;28;20460;-92
2023/04/10 07:34:56;;;;;;;5.80;5.50;;;;;;;;;;4981844;28;21203;-96
2023/04/10 07:37:24;;;;;;;6.80;6.30;;;;;;;;;;4999411;28;20512;-94
2023/04/10 07:39:53;;;;;;;6.33;5.93;;;;;;;;;;4996170;28;20437;-89
2023/04/10 07:42:19;;;;;;;6.30;5.90;;;;;;;;;;4995762;28;20436;-94
2023/04/10 07:44:56;;;;;;;6.87;6.47;;;;;;;;;;5005308;28;20472;-91
2023/04/10 07:47:26;;;;;;;6.33;6.03;;;;;;;;;;4976024;28;20424;-94
2023/04/10 07:50:00;;;;;;;6.40;6.07;;;;;;;;;;4972055;28;20535;-93
2023/04/10 07:52:29;;;;;;;7.43;7.03;;;;;;;;;;4974156;28;20412;-94
2023/04/10 07:55:06;;;;;;;5.47;5.27;;;;;;;;;;4987961;28;20828;-91
2023/04/10 07:57:38;;;;;;;5.83;5.43;;;;;;;;;;4971210;28;20429;-94
2023/04/10 08:00:36;;;;;;;6.20;5.90;;;;;;;;;;4973679;28;20428;-91
2023/04/10 08:03:05;;;;;;;5.97;5.70;;;;;;;;;;4947024;28;20559;-92
2023/04/10 08:05:35;;;;;;;6.00;5.70;;;;;;;;;;4971459;28;20436;-93
2023/04/10 08:08:30;;;;;;;5.97;5.67;;;;;;;;;;4971671;28;20436;-93
2023/04/10 08:10:59;;;;;;;4.73;4.50;;;;;;;;;;4967211;28;20439;-94
2023/04/10 08:17:16;;;;;;;6.03;5.60;;;;;;;;;;4968748;28;20428;-93
2023/04/10 08:19:50;;;;;;;6.07;5.67;;;;;;;;;;4929750;28;20463;-94
2023/04/10 08:22:52;;;;;;;;;;;;;;;;;;;;;
2023/04/10 08:25:26;;;;;;;6.03;5.73;;;;;;;;;;5001624;28;20456;-91
2023/04/10 08:31:30;;;;;;;5.70;5.40;;;;;;;;;;5012423;28;20408;-94
2023/04/10 08:34:41;;;;;;;5.67;5.47;;;;;;;;;;4991466;28;20433;-91
2023/04/10 08:37:25;;;;;;;6.10;5.83;;;;;;;;;;4988489;28;20470;-91
2023/04/10 08:40:15;;;;;;;;;;;;;;;;;;;;;
2023/04/10 08:42:53;;;;;;;4.07;3.87;;;;;;;;;;5001344;28;20653;-94
2023/04/10 08:45:22;;;;;;;15.70;10.80;;;;;;;;;;4981472;23;20515;-83
2023/04/10 08:47:51;;;;;;;4.53;4.33;;;;;;;;;;5004135;28;20448;-82
2023/04/10 08:50:18;;;;;;;5.60;4.80;;;;;;;;;;5006183;28;20433;-83
2023/04/10 08:52:45;;;;;;;4.50;4.30;;;;;;;;;;5008271;28;20437;-83
2023/04/10 08:55:13;;;;;;;4.27;4.07;;;;;;;;;;5005165;28;20437;-83
2023/04/10 08:57:40;;;;;;;5.00;4.80;;;;;;;;;;4987483;28;20519;-82
2023/04/10 09:00:06;;;;;;;4.70;4.50;;;;;;;;;;4991102;28;20432;-81
2023/04/10 09:02:32;;;;;;;4.13;4.03;;;;;;;;;;4996181;28;20475;-81
2023/04/10 09:04:59;;;;;;;4.73;4.53;;;;;;;;;;4990976;28;20412;-79
2023/04/10 09:07:26;;;;;;;3.50;3.40;;;;;;;;;;4991777;28;20436;-81
2023/04/10 09:09:52;;;;;;;4.10;4.00;;;;;;;;;;5003273;28;20508;-80
2023/04/10 09:12:18;;;;;;;4.57;4.37;;;;;;;;;;4992115;28;20441;-80
2023/04/10 09:14:44;;;;;;;4.27;4.07;;;;;;;;;;4990281;28;20804;-80
2023/04/10 09:17:12;;;;;;;4.63;4.43;;;;;;;;;;5019313;28;20432;-81
2023/04/10 09:19:38;;;;;;;4.77;4.53;;;;;;;;;;5002545;28;20420;-82
2023/04/10 09:22:04;;;;;;;4.00;3.90;;;;;;;;;;5004040;28;20456;-82
2023/04/10 09:24:30;;;;;;;4.17;4.07;;;;;;;;;;5002497;28;20460;-82
2023/04/10 09:26:56;;;;;;;4.40;4.30;;;;;;;;;;4995171;28;20432;-82
2023/04/10 09:29:22;;;;;;;4.47;4.37;;;;;;;;;;5006035;28;20428;-83
2023/04/10 09:31:50;;;;;;;3.83;3.73;;;;;;;;;;4996681;28;20444;-81
2023/04/10 09:34:23;;;;;;;3.97;3.87;;;;;;;;;;5013976;28;20412;-83
2023/04/10 09:36:55;;;;;;;3.90;3.80;;;;;;;;;;4999860;28;20451;-83
2023/04/10 09:39:22;;;;;;;3.80;3.70;;;;;;;;;;4991715;28;20484;-83
2023/04/10 09:41:51;;;;;;;3.53;3.53;;;;;;;;;;5004882;28;20819;-84
2023/04/10 09:44:29;;;;;;;5.33;5.03;;;;;;;;;;5005282;28;20479;-85
2023/04/10 09:46:55;;;;;;;2.63;2.63;;;;;;;;;;4996640;28;20452;-83
2023/04/10 09:49:22;;;;;;;4.33;4.03;;;;;;;;;;4994950;28;20431;-80
2023/04/10 09:51:48;;;;;;;3.00;3.00;;;;;;;;;;4985580;28;20451;-80
2023/04/10 09:54:15;;;;;;;3.50;3.40;;;;;;;;;;4991083;28;20812;-81
2023/04/10 09:56:41;;;;;;;3.27;3.27;;;;;;;;;;4981152;28;20484;-81
2023/04/10 09:59:08;;;;;;;4.27;4.00;;;;;;;;;;4983926;28;20498;-82
2023/04/10 10:01:36;;;;;;;4.53;4.27;;;;;;;;;;4971965;28;20868;-81
2023/04/10 10:04:05;;;;;;;4.23;4.00;;;;;;;;;;4980810;28;20528;-80
2023/04/10 10:06:32;;;;;;;3.87;3.77;;;;;;;;;;4986391;28;20455;-82
2023/04/10 10:09:07;;;;;;;5.60;5.40;;;;;;;;;;4980086;28;20437;-82
2023/04/10 10:11:34;;;;;;;4.40;4.30;;;;;;;;;;4967558;28;20843;-82
2023/04/10 10:14:02;;;;;;;3.77;3.67;;;;;;;;;;4989184;28;20443;-84
2023/04/10 10:16:31;;;;;;;3.73;3.63;;;;;;;;;;4985801;28;20428;-82
2023/04/10 10:19:01;;;;;;;3.80;3.70;;;;;;;;;;4981554;28;20828;-81
2023/04/10 10:21:28;;;;;;;4.30;4.10;;;;;;;;;;4985571;28;20558;-81
2023/04/10 10:23:56;;;;;;;3.60;3.50;;;;;;;;;;4988515;28;20471;-82
2023/04/10 10:26:23;;;;;;;3.80;3.70;;;;;;;;;;4995542;28;20420;-82
2023/04/10 10:28:51;;;;;;;3.40;3.30;;;;;;;;;;4999253;28;20440;-84
2023/04/10 10:31:18;;;;;;;3.37;3.10;;;;;;;;;;5015560;28;20420;-84
2023/04/10 10:33:46;;;;;;;4.03;3.90;;;;;;;;;;5000966;28;20441;-86
2023/04/10 10:36:13;;;;;;;9.53;8.63;;;;;;;;;;5010317;28;20439;-84
2023/04/10 10:38:41;;;;;;;3.77;3.77;;;;;;;;;;5000001;28;20464;-83
2023/04/10 10:41:32;;;;;;;4.17;3.97;;;;;;;;;;4992898;28;20432;-85
2023/04/10 10:44:06;;;;;;;3.33;3.33;;;;;;;;;;4999612;28;20474;-84
2023/04/10 10:46:35;;;;;;;3.70;3.60;;;;;;;;;;4991323;28;20475;-85
2023/04/10 10:49:01;;;;;;;3.10;3.00;;;;;;;;;;4991302;28;20516;-83
2023/04/10 10:52:02;;;;;;;3.43;3.33;;;;;;;;;;5005190;28;20438;-84
2023/04/10 10:54:35;;;;;;;3.10;3.10;;;;;;;;;;4955217;29;20445;-87
2023/04/10 10:57:05;;;;;;;3.63;3.60;;;;;;;;;;4995281;28;20459;-84
2023/04/10 10:59:43;;;;;;;3.13;3.03;;;;;;;;;;5002199;28;20519;-85
2023/04/10 11:02:15;;;;;;;3.80;3.50;;;;;;;;;;4998359;28;20531;-84
2023/04/10 11:04:48;;;;;;;3.70;3.60;;;;;;;;;;5006039;28;20485;-84
2023/04/10 11:07:15;;;;;;;3.10;3.10;;;;;;;;;;5013364;28;20462;-86
2023/04/10 11:09:45;;;;;;;3.53;3.50;;;;;;;;;;4992375;28;20860;-84
2023/04/10 11:12:11;;;;;;;3.40;3.40;;;;;;;;;;4984013;28;20429;-83
2023/04/10 11:14:37;;;;;;;3.53;3.43;;;;;;;;;;5008095;28;20455;-79
2023/04/10 11:17:03;;;;;;;2.37;2.37;;;;;;;;;;4997349;28;20431;-85
2023/04/10 11:19:30;;;;;;;3.47;3.47;;;;;;;;;;4996090;28;20961;-81
2023/04/10 11:22:04;;;;;;;3.80;3.70;;;;;;;;;;4987119;28;20523;-82
2023/04/10 11:24:50;;;;;;;2.23;2.23;;;;;;;;;;4990351;28;20464;-83
2023/04/10 11:27:35;;;;;;;3.50;3.40;;;;;;;;;;4996854;28;20440;-82
2023/04/10 11:30:03;;;;;;;2.97;2.97;;;;;;;;;;4996587;28;21158;-81
2023/04/10 11:32:40;;;;;;;3.87;3.77;;;;;;;;;;4980676;28;20851;-84
2023/04/10 11:35:07;;;;;;;3.73;3.63;;;;;;;;;;4999409;28;20412;-84
2023/04/10 11:37:33;;;;;;;3.47;3.40;;;;;;;;;;5004092;28;20514;-85
2023/04/10 11:40:06;;;;;;;3.70;3.50;;;;;;;;;;5003609;28;20456;-83
2023/04/10 11:42:32;;;;;;;3.07;3.07;;;;;;;;;;4971926;28;20441;-82
2023/04/10 11:44:58;;;;;;;8.47;7.93;;;;;;;;;;5009255;28;20467;-83
2023/04/10 11:47:25;;;;;;;3.43;3.33;;;;;;;;;;4991350;28;22697;-81
2023/04/10 11:49:55;;;;;;;3.50;3.40;;;;;;;;;;4993818;28;20931;-82
2023/04/10 11:52:25;;;;;;;3.93;3.83;;;;;;;;;;5002050;28;21162;-82
2023/04/10 11:54:51;;;;;;;3.40;3.40;;;;;;;;;;5003017;28;20546;-81
2023/04/10 11:57:17;;;;;;;3.10;3.10;;;;;;;;;;4996458;28;20984;-82
2023/04/10 11:59:49;;;;;;;3.20;3.20;;;;;;;;;;4987815;28;20404;-80
2023/04/10 12:02:15;;;;;;;3.17;3.17;;;;;;;;;;4987903;28;20428;-80
2023/04/10 12:04:42;;;;;;;2.97;2.90;;;;;;;;;;4972921;28;20471;-78
2023/04/10 12:07:09;;;;;;;3.57;3.47;;;;;;;;;;4991348;28;20535;-81
2023/04/10 12:09:35;;;;;;;2.73;2.73;;;;;;;;;;5000258;28;20488;-81
2023/04/10 12:12:05;;;;;;;3.20;3.20;;;;;;;;;;4987304;28;20922;-83
2023/04/10 12:14:31;;;;;;;3.63;3.53;;;;;;;;;;4982227;28;20507;-83
2023/04/10 12:16:57;;;;;;;3.53;3.40;;;;;;;;;;4987363;28;20463;-84
2023/04/10 12:19:24;;;;;;;3.63;3.53;;;;;;;;;;4989405;28;20964;-81
2023/04/10 12:21:50;;;;;;;3.47;3.37;;;;;;;;;;4993928;28;20441;-81
2023/04/10 12:24:35;;;;;;;3.83;3.73;;;;;;;;;;4993649;28;20480;-83
2023/04/10 12:27:02;;;;;;;3.40;3.30;;;;;;;;;;4985311;28;20472;-80
2023/04/10 12:29:29;;;;;;;3.87;3.77;;;;;;;;;;5001487;28;20409;-81
2023/04/10 12:31:55;;;;;;;3.10;3.00;;;;;;;;;;4963245;28;20437;-82
2023/04/10 12:34:22;;;;;;;3.30;3.20;;;;;;;;;;4992289;28;20527;-81
2023/04/10 12:36:54;;;;;;;2.70;2.70;;;;;;;;;;4988422;28;20436;-81
2023/04/10 12:39:25;;;;;;;3.20;3.00;;;;;;;;;;4987617;28;20439;-82
2023/04/10 12:41:51;;;;;;;2.93;2.80;;;;;;;;;;4984406;28;20509;-79
2023/04/10 12:44:19;;;;;;;5.10;4.73;;;;;;;;;;4999965;28;20464;-78
2023/04/10 12:46:45;;;;;;;2.30;2.30;;;;;;;;;;4996430;28;20460;-80
2023/04/10 12:49:12;;;;;;;3.00;2.80;;;;;;;;;;4989478;28;20558;-83
2023/04/10 12:51:45;;;;;;;3.57;3.27;;;;;;;;;;4990811;28;20468;-82
2023/04/10 12:54:22;;;;;;;2.87;2.77;;;;;;;;;;4994061;28;20530;-82
2023/04/10 12:56:49;;;;;;;3.23;3.13;;;;;;;;;;4987069;28;20520;-80
2023/04/10 12:59:15;;;;;;;3.40;3.20;;;;;;;;;;4977308;28;20467;-82
2023/04/10 13:01:41;;;;;;;2.87;2.80;;;;;;;;;;4969511;28;20524;-83
2023/04/10 13:04:07;;;;;;;2.57;2.47;;;;;;;;;;4967122;28;20549;-81
2023/04/10 13:06:41;;;;;;;3.00;3.00;;;;;;;;;;4989998;28;20456;-83
2023/04/10 13:09:07;;;;;;;3.20;3.10;;;;;;;;;;4959259;28;20441;-81
2023/04/10 13:11:33;;;;;;;2.73;2.73;;;;;;;;;;4984875;28;20436;-81
2023/04/10 13:13:59;;;;;;;3.37;3.37;;;;;;;;;;4974737;28;20691;-82
2023/04/10 13:16:25;;;;;;;3.40;3.20;;;;;;;;;;4988932;28;20448;-83
2023/04/10 13:18:51;;;;;;;3.57;3.37;;;;;;;;;;4989561;28;20462;-82
2023/04/10 13:21:21;;;;;;;3.03;3.00;;;;;;;;;;4981320;28;20941;-82
2023/04/10 13:23:47;;;;;;;3.13;3.03;;;;;;;;;;4968850;28;20506;-82
2023/04/10 13:26:14;;;;;;;2.80;2.80;;;;;;;;;;4991770;28;20471;-77
2023/04/10 13:28:40;;;;;;;3.27;2.83;;;;;;;;;;4979284;28;20824;-76
2023/04/10 13:31:06;;;;;;;3.00;3.00;;;;;;;;;;4988608;28;20417;-78
2023/04/10 13:33:32;;;;;;;2.73;2.73;;;;;;;;;;4952493;28;20448;-77
2023/04/10 13:35:58;;;;;;;2.70;2.70;;;;;;;;;;4982494;28;20417;-77
2023/04/10 13:38:24;;;;;;;3.07;3.07;;;;;;;;;;4982054;28;20510;-82
2023/04/10 13:40:50;;;;;;;2.93;2.83;;;;;;;;;;4980484;28;20419;-80
2023/04/10 13:43:16;;;;;;;2.67;2.57;;;;;;;;;;4990861;28;21024;-81
2023/04/10 13:45:42;;;;;;;3.07;2.97;;;;;;;;;;4984063;28;20564;-79
2023/04/10 13:48:09;;;;;;;2.77;2.77;;;;;;;;;;4988483;28;20528;-82
2023/04/10 13:50:35;;;;;;;3.10;3.00;;;;;;;;;;4978095;28;20871;-81
2023/04/10 13:53:01;;;;;;;2.30;2.27;;;;;;;;;;4984722;28;20548;-80
2023/04/10 13:55:27;;;;;;;2.80;2.77;;;;;;;;;;4986440;28;21422;-81
2023/04/10 13:57:53;;;;;;;2.80;2.70;;;;;;;;;;4979468;28;20527;-79
2023/04/10 14:00:19;;;;;;;3.07;2.87;;;;;;;;;;4984250;28;20541;-81
2023/04/10 14:02:45;;;;;;;3.13;3.00;;;;;;;;;;4986550;28;20436;-79
2023/04/10 14:05:11;;;;;;;2.50;2.50;;;;;;;;;;4990248;28;20909;-82
2023/04/10 14:07:37;;;;;;;2.60;2.60;;;;;;;;;;4986298;28;20498;-82
2023/04/10 14:10:03;;;;;;;3.43;3.27;;;;;;;;;;4992133;28;20471;-79
2023/04/10 14:12:29;;;;;;;3.90;3.80;;;;;;;;;;4979702;28;20769;-80
2023/04/10 14:14:57;;;;;;;3.00;2.90;;;;;;;;;;4989099;28;20432;-80
2023/04/10 14:17:23;;;;;;;2.60;2.60;;;;;;;;;;4985914;28;20451;-80
2023/04/10 14:19:51;;;;;;;2.00;2.00;;;;;;;;;;4990492;28;20979;-80
2023/04/10 14:22:17;;;;;;;2.43;2.43;;;;;;;;;;4988983;28;20443;-82
2023/04/10 14:24:43;;;;;;;3.17;3.17;;;;;;;;;;4985082;28;20467;-78
2023/04/10 14:27:09;;;;;;;3.33;3.23;;;;;;;;;;4979726;28;20448;-80
2023/04/10 14:29:35;;;;;;;3.60;3.50;;;;;;;;;;4986898;28;20961;-81
2023/04/10 14:32:01;;;;;;;2.77;2.77;;;;;;;;;;4983175;28;20459;-80
2023/04/10 14:34:27;;;;;;;2.90;2.90;;;;;;;;;;4994639;28;20523;-80
2023/04/10 14:36:54;;;;;;;3.50;3.30;;;;;;;;;;4987337;28;20444;-81
2023/04/10 14:39:22;;;;;;;3.60;3.50;;;;;;;;;;4981967;28;20440;-79
2023/04/10 14:41:48;;;;;;;3.90;3.57;;;;;;;;;;4962370;28;20486;-81
2023/04/10 14:44:14;;;;;;;3.17;3.17;;;;;;;;;;4990043;28;20460;-82
2023/04/10 14:46:40;;;;;;;2.20;2.20;;;;;;;;;;4971513;28;20950;-79
2023/04/10 14:49:06;;;;;;;3.13;3.13;;;;;;;;;;4998377;28;20425;-82
2023/04/10 14:51:33;;;;;;;3.70;3.60;;;;;;;;;;5009246;28;20471;-80
2023/04/10 14:53:59;;;;;;;3.03;2.93;;;;;;;;;;4996614;28;20444;-82
2023/04/10 14:56:25;;;;;;;2.77;2.77;;;;;;;;;;4978808;28;20446;-83
2023/04/10 14:58:51;;;;;;;3.20;3.10;;;;;;;;;;4997401;28;20437;-82
2023/04/10 15:01:17;;;;;;;3.17;3.17;;;;;;;;;;4979059;28;20425;-81
2023/04/10 15:03:46;;;;;;;3.43;3.33;;;;;;;;;;4980019;28;20498;-80